createdAt,value
2023-02-08T00:00:47.054Z,49.28
2023-02-08T00:03:13.822Z,45.78
2023-02-08T00:05:41.389Z,40.05
2023-02-08T00:08:08.386Z,43.30
2023-02-08T00:10:35.689Z,40.30
2023-02-08T00:13:03.081Z,43.28
2023-02-08T00:15:29.867Z,45.55
2023-02-08T00:17:56.707Z,45.33
2023-02-08T00:20:23.504Z,47.67
2023-02-08T00:22:51.983Z,44.53
2023-02-08T00:25:19.369Z,44.60
2023-02-08T00:27:46.246Z,37.88
2023-02-08T00:30:13.130Z,38.63
2023-02-08T00:32:39.971Z,39.78
2023-02-08T00:35:07.105Z,47.20
2023-02-08T00:37:33.979Z,42.55
2023-02-08T00:40:02.620Z,41.47
2023-02-08T00:42:30.304Z,40.05
2023-02-08T00:44:57.350Z,45.47
2023-02-08T00:47:24.936Z,41.35
2023-02-08T00:49:52.177Z,42.45
2023-02-08T00:52:19.573Z,42.97
2023-02-08T00:54:46.915Z,42.33
2023-02-08T00:57:14.169Z,36.13
2023-02-08T00:59:41.007Z,35.75
2023-02-08T01:02:07.795Z,38.63
2023-02-08T01:04:34.690Z,41.33
2023-02-08T01:07:04.023Z,39.85
2023-02-08T01:09:30.828Z,39.75
2023-02-08T01:11:57.806Z,38.75
2023-02-08T01:14:25.129Z,40.20
2023-02-08T01:16:52.275Z,40.35
2023-02-08T01:19:19.680Z,43.05
2023-02-08T01:21:49.070Z,49.05
2023-02-08T01:24:16.433Z,47.47
2023-02-08T01:26:43.292Z,45.33
2023-02-08T01:29:10.309Z,43.70
2023-02-08T01:31:38.908Z,43.83
2023-02-08T01:34:07.019Z,46.72
2023-02-08T01:36:34.997Z,39.20
2023-02-08T01:39:03.170Z,37.17
2023-02-08T01:41:36.591Z,40.45
2023-02-08T01:44:12.263Z,39.35
2023-02-08T01:46:51.704Z,42.67
2023-02-08T01:49:28.900Z,36.58
2023-02-08T01:52:15.721Z,39.47
2023-02-08T01:54:55.746Z,37.53
2023-02-08T01:57:23.439Z,35.47
2023-02-08T02:00:22.391Z,39.90
2023-02-08T02:02:55.934Z,33.65
2023-02-08T02:05:26.380Z,38.85
2023-02-08T02:07:54.908Z,41.10
2023-02-08T02:10:33.981Z,39.63
2023-02-08T02:13:25.431Z,36.95
2023-02-08T02:15:53.347Z,36.35
2023-02-08T02:18:31.577Z,37.97
2023-02-08T02:21:32.334Z,39.00
2023-02-08T02:24:17.343Z,34.90
2023-02-08T02:26:52.828Z,45.85
2023-02-08T02:29:47.704Z,40.10
2023-02-08T02:32:41.838Z,44.58
2023-02-08T02:35:16.188Z,40.05
2023-02-08T02:38:07.138Z,36.83
2023-02-08T02:41:07.776Z,38.25
2023-02-08T02:43:42.698Z,43.05
2023-02-08T02:46:24.663Z,40.80
2023-02-08T02:49:00.283Z,39.10
2023-02-08T02:51:53.909Z,43.83
2023-02-08T02:54:39.953Z,37.50
2023-02-08T02:57:10.579Z,43.47
2023-02-08T02:59:39.499Z,41.90
2023-02-08T03:02:06.423Z,41.10
2023-02-08T03:04:33.252Z,47.70
2023-02-08T03:07:17.802Z,45.78
2023-02-08T03:10:03.063Z,44.88
2023-02-08T03:12:34.368Z,45.22
2023-02-08T03:15:28.086Z,45.08
2023-02-08T03:18:04.548Z,50.50
2023-02-08T03:20:57.121Z,41.65
2023-02-08T03:23:38.581Z,42.15
2023-02-08T03:28:40.885Z,37.50
2023-02-08T03:31:13.568Z,43.40
2023-02-08T03:33:54.259Z,41.80
2023-02-08T03:36:24.108Z,32.50
2023-02-08T03:38:52.519Z,40.70
2023-02-08T03:41:36.875Z,45.35
2023-02-08T03:44:13.314Z,41.45
2023-02-08T03:46:48.373Z,41.78
2023-02-08T03:49:18.800Z,48.90
2023-02-08T03:51:46.704Z,41.17
2023-02-08T03:54:19.054Z,39.28
2023-02-08T03:56:57.680Z,39.78
2023-02-08T03:59:39.778Z,39.95
2023-02-08T04:02:09.739Z,42.35
2023-02-08T04:04:40.674Z,45.83
2023-02-08T04:07:07.845Z,41.80
2023-02-08T04:09:38.954Z,43.28
2023-02-08T04:12:06.230Z,46.10
2023-02-08T04:14:33.042Z,41.53
2023-02-08T04:16:59.933Z,41.40
2023-02-08T04:19:26.802Z,37.88
2023-02-08T04:21:55.078Z,42.22
2023-02-08T04:24:21.896Z,47.10
2023-02-08T04:26:49.948Z,42.35
2023-02-08T04:29:16.741Z,42.40
2023-02-08T04:31:43.558Z,47.20
2023-02-08T04:34:10.314Z,37.05
2023-02-08T04:36:37.215Z,43.72
2023-02-08T04:39:04.334Z,40.83
2023-02-08T04:41:31.270Z,45.50
2023-02-08T04:43:58.431Z,37.72
2023-02-08T04:46:25.810Z,46.30
2023-02-08T04:48:52.638Z,43.95
2023-02-08T04:51:19.831Z,41.85
2023-02-08T04:53:46.591Z,47.53
2023-02-08T04:56:13.469Z,43.17
2023-02-08T04:58:40.309Z,39.63
2023-02-08T05:01:08.340Z,39.60
2023-02-08T05:03:35.738Z,46.25
2023-02-08T05:06:02.707Z,37.08
2023-02-08T05:08:29.506Z,41.22
2023-02-08T05:10:56.337Z,42.35
2023-02-08T05:13:23.169Z,38.03
2023-02-08T05:15:49.977Z,40.30
2023-02-08T05:18:16.816Z,41.78
2023-02-08T05:20:43.661Z,40.08
2023-02-08T05:23:10.768Z,44.75
2023-02-08T05:25:39.238Z,37.50
2023-02-08T05:28:06.411Z,43.63
2023-02-08T05:30:33.314Z,40.28
2023-02-08T05:33:00.174Z,38.70
2023-02-08T05:35:27.007Z,42.17
2023-02-08T05:37:53.774Z,39.92
2023-02-08T05:40:20.596Z,41.40
2023-02-08T05:42:48.046Z,40.20
2023-02-08T05:45:15.032Z,39.38
2023-02-08T05:47:42.158Z,41.22
2023-02-08T05:50:11.114Z,40.10
2023-02-08T05:52:38.886Z,42.17
2023-02-08T05:55:06.460Z,40.53
2023-02-08T05:57:35.700Z,39.15
2023-02-08T06:00:05.013Z,40.83
2023-02-08T06:02:32.445Z,40.10
2023-02-08T06:04:59.579Z,39.83
2023-02-08T06:07:29.773Z,42.67
2023-02-08T06:09:56.583Z,41.42
2023-02-08T06:12:23.371Z,38.65
2023-02-08T06:14:50.151Z,41.00
2023-02-08T06:17:16.911Z,38.58
2023-02-08T06:19:43.671Z,38.80
2023-02-08T06:22:10.470Z,37.45
2023-02-08T06:24:37.268Z,39.15
2023-02-08T06:27:04.316Z,36.90
2023-02-08T06:29:31.149Z,36.80
2023-02-08T06:31:58.007Z,45.90
2023-02-08T06:34:24.882Z,39.83
2023-02-08T06:36:51.742Z,39.05
2023-02-08T06:39:18.483Z,40.58
2023-02-08T06:41:46.922Z,40.38
2023-02-08T06:44:13.797Z,48.78
2023-02-08T06:46:40.537Z,45.88
2023-02-08T06:49:07.345Z,41.05
2023-02-08T06:51:34.125Z,48.28
2023-02-08T06:54:00.889Z,45.78
2023-02-08T06:56:27.736Z,41.10
2023-02-08T06:58:56.136Z,49.35
2023-02-08T07:01:22.927Z,45.97
2023-02-08T07:03:49.761Z,43.50
2023-02-08T07:06:19.457Z,37.42
2023-02-08T07:08:47.572Z,42.08
2023-02-08T07:11:17.154Z,42.08
2023-02-08T07:13:50.936Z,40.17
2023-02-08T07:16:19.037Z,40.38
2023-02-08T07:18:46.771Z,58.25
2023-02-08T07:21:13.910Z,45.05
2023-02-08T07:23:40.971Z,45.67
2023-02-08T07:26:10.094Z,44.78
2023-02-08T07:28:37.102Z,47.00
2023-02-08T07:31:12.702Z,45.25
2023-02-08T07:33:39.906Z,44.92
2023-02-08T07:36:09.066Z,48.47
2023-02-08T07:38:36.429Z,59.20
2023-02-08T07:41:05.470Z,51.38
2023-02-08T07:43:34.528Z,56.08
2023-02-08T07:46:08.307Z,56.63
2023-02-08T07:48:35.591Z,47.08
2023-02-08T07:51:03.187Z,45.33
2023-02-08T07:53:32.191Z,40.42
2023-02-08T07:55:59.334Z,38.92
2023-02-08T07:58:28.695Z,37.55
2023-02-08T08:00:55.479Z,33.80
2023-02-08T08:03:22.576Z,31.40
2023-02-08T08:05:52.148Z,34.30
2023-02-08T08:08:20.598Z,26.90
2023-02-08T08:10:47.420Z,29.65
2023-02-08T08:13:14.566Z,28.42
2023-02-08T08:15:41.611Z,28.77
2023-02-08T08:18:08.647Z,31.25
2023-02-08T08:20:35.757Z,31.20
2023-02-08T08:23:04.065Z,28.85
2023-02-08T08:25:31.196Z,27.27
2023-02-08T08:27:58.362Z,22.92
2023-02-08T08:30:25.331Z,31.13
2023-02-08T08:32:52.121Z,29.38
2023-02-08T08:35:19.312Z,20.25
2023-02-08T08:37:46.167Z,27.95
2023-02-08T08:40:13.334Z,28.02
2023-02-08T08:42:40.801Z,25.70
2023-02-08T08:45:09.152Z,25.75
2023-02-08T08:47:35.951Z,38.00
2023-02-08T08:50:02.876Z,25.58
2023-02-08T08:52:29.765Z,25.75
2023-02-08T08:54:56.581Z,21.20
2023-02-08T08:57:23.381Z,19.90
2023-02-08T08:59:50.210Z,21.38
2023-02-08T09:02:17.194Z,22.10
2023-02-08T09:04:43.991Z,17.98
2023-02-08T09:07:11.014Z,17.80
2023-02-08T09:09:37.848Z,21.20
2023-02-08T09:12:05.176Z,18.70
2023-02-08T09:14:31.987Z,19.00
2023-02-08T09:16:58.772Z,17.48
2023-02-08T09:19:25.719Z,27.25
2023-02-08T09:21:52.603Z,20.58
2023-02-08T09:24:19.494Z,17.60
2023-02-08T09:26:46.402Z,17.45
2023-02-08T09:29:13.191Z,19.92
2023-02-08T09:31:57.747Z,18.77
2023-02-08T09:34:24.800Z,15.98
2023-02-08T09:36:51.918Z,18.85
2023-02-08T09:39:22.497Z,22.77
2023-02-08T09:42:15.479Z,20.60
2023-02-08T09:45:00.854Z,18.13
2023-02-08T09:47:37.889Z,19.50
2023-02-08T09:50:14.207Z,18.27
2023-02-08T09:52:40.957Z,18.83
2023-02-08T09:55:32.181Z,20.35
2023-02-08T09:58:03.657Z,16.20
2023-02-08T10:00:44.161Z,18.17
2023-02-08T10:03:37.064Z,20.50
2023-02-08T10:06:07.055Z,15.35
2023-02-08T10:08:35.778Z,18.10
2023-02-08T10:11:24.723Z,15.95
2023-02-08T10:14:09.576Z,16.35
2023-02-08T10:16:51.936Z,19.05
2023-02-08T10:19:39.157Z,11.05
2023-02-08T10:22:24.632Z,12.40
2023-02-08T10:25:10.056Z,13.35
2023-02-08T10:28:01.665Z,12.38
2023-02-08T10:33:37.516Z,12.95
2023-02-08T10:36:18.482Z,10.18
2023-02-08T10:38:47.428Z,8.38
2023-02-08T10:41:20.335Z,8.63
2023-02-08T10:43:56.058Z,10.52
2023-02-08T10:46:31.713Z,14.63
2023-02-08T10:49:08.857Z,11.73
2023-02-08T10:51:36.450Z,11.73
2023-02-08T10:54:03.613Z,9.77
2023-02-08T10:56:30.337Z,11.02
2023-02-08T10:58:59.495Z,10.13
2023-02-08T11:01:28.568Z,10.63
2023-02-08T11:04:11.294Z,10.52
2023-02-08T11:06:42.711Z,9.82
2023-02-08T11:11:47.934Z,14.57
2023-02-08T11:14:20.044Z,14.98
2023-02-08T11:16:55.136Z,8.95
2023-02-08T11:19:46.398Z,11.07
2023-02-08T11:22:18.726Z,9.25
2023-02-08T11:24:54.180Z,9.48
2023-02-08T11:27:40.536Z,9.07
2023-02-08T11:30:13.526Z,9.82
2023-02-08T11:32:41.891Z,8.90
2023-02-08T11:35:26.950Z,11.48
2023-02-08T11:37:55.637Z,13.18
2023-02-08T11:40:33.154Z,9.98
2023-02-08T11:43:00.384Z,8.90
2023-02-08T11:45:35.840Z,12.25
2023-02-08T11:48:05.087Z,8.95
2023-02-08T11:50:34.126Z,7.65
2023-02-08T11:53:06.906Z,7.57
2023-02-08T11:55:35.100Z,11.10
2023-02-08T11:58:12.577Z,9.65
2023-02-08T12:00:41.037Z,9.02
2023-02-08T12:03:23.767Z,12.43
2023-02-08T12:05:59.556Z,9.40
2023-02-08T12:08:31.266Z,7.00
2023-02-08T12:11:16.942Z,6.68
2023-02-08T12:14:11.553Z,8.95
2023-02-08T12:17:13.118Z,9.57
2023-02-08T12:22:24.396Z,8.05
2023-02-08T12:25:01.177Z,7.63
2023-02-08T12:27:45.185Z,11.43
2023-02-08T12:30:26.511Z,9.10
2023-02-08T12:33:17.377Z,6.53
2023-02-08T12:36:08.787Z,7.13
2023-02-08T12:42:01.015Z,8.30
2023-02-08T12:44:30.456Z,6.22
2023-02-08T12:47:09.079Z,5.63
2023-02-08T12:49:57.872Z,7.50
2023-02-08T12:52:31.631Z,9.63
2023-02-08T12:55:19.301Z,12.07
2023-02-08T12:57:50.914Z,7.20
2023-02-08T13:00:28.041Z,10.25
2023-02-08T13:03:34.138Z,9.40
2023-02-08T13:06:08.523Z,6.28
2023-02-08T13:08:49.821Z,6.50
2023-02-08T13:11:36.847Z,6.63
2023-02-08T13:14:24.347Z,7.25
2023-02-08T13:16:55.598Z,8.18
2023-02-08T13:19:37.287Z,7.78
2023-02-08T13:22:05.534Z,7.32
2023-02-08T13:24:38.091Z,6.97
2023-02-08T13:27:07.367Z,9.10
2023-02-08T13:29:36.100Z,10.55
2023-02-08T13:32:15.120Z,6.90
2023-02-08T13:34:51.957Z,10.35
2023-02-08T13:37:28.401Z,9.02
2023-02-08T13:40:10.784Z,8.60
2023-02-08T13:42:43.540Z,9.87
2023-02-08T13:45:27.543Z,7.18
2023-02-08T13:48:20.515Z,6.32
2023-02-08T13:50:57.311Z,7.38
2023-02-08T13:53:39.339Z,9.70
2023-02-08T13:56:10.081Z,8.77
2023-02-08T13:58:50.276Z,8.55
2023-02-08T14:01:19.411Z,12.38
2023-02-08T14:04:09.895Z,8.23
2023-02-08T14:06:45.264Z,11.43
2023-02-08T14:09:20.297Z,14.55
2023-02-08T14:11:50.811Z,12.23
2023-02-08T14:14:17.662Z,10.70
2023-02-08T14:17:07.407Z,12.43
2023-02-08T14:19:42.938Z,9.98
2023-02-08T14:22:12.540Z,9.45
2023-02-08T14:24:48.207Z,10.32
2023-02-08T14:27:33.414Z,7.10
2023-02-08T14:30:18.187Z,11.50
2023-02-08T14:32:49.973Z,6.05
2023-02-08T14:35:18.371Z,9.73
2023-02-08T14:38:08.653Z,8.32
2023-02-08T14:40:49.881Z,9.75
2023-02-08T14:43:19.797Z,7.97
2023-02-08T14:45:56.517Z,8.45
2023-02-08T14:48:37.272Z,10.95
2023-02-08T14:51:10.515Z,10.27
2023-02-08T14:53:40.656Z,7.18
2023-02-08T14:56:19.317Z,9.38
2023-02-08T14:58:51.163Z,6.70
2023-02-08T15:01:36.910Z,9.35
2023-02-08T15:04:04.461Z,15.98
2023-02-08T15:06:37.332Z,10.00
2023-02-08T15:09:22.535Z,11.68
2023-02-08T15:12:25.523Z,18.35
2023-02-08T15:14:55.069Z,16.27
2023-02-08T15:17:38.800Z,8.93
2023-02-08T15:20:09.204Z,10.27
2023-02-08T15:22:39.864Z,7.40
2023-02-08T15:25:27.473Z,8.55
2023-02-08T15:27:59.636Z,9.27
2023-02-08T15:30:35.405Z,7.90
2023-02-08T15:33:08.553Z,9.18
2023-02-08T15:35:36.232Z,10.90
2023-02-08T15:38:06.979Z,12.07
2023-02-08T15:40:35.209Z,6.25
2023-02-08T15:43:20.647Z,7.07
2023-02-08T15:46:00.330Z,8.43
2023-02-08T15:48:28.213Z,7.47
2023-02-08T15:50:56.094Z,5.18
2023-02-08T15:53:24.227Z,5.13
2023-02-08T15:55:54.587Z,6.90
2023-02-08T15:58:30.128Z,6.47
2023-02-08T16:00:59.580Z,5.50
2023-02-08T16:03:28.136Z,8.18
2023-02-08T16:05:57.040Z,6.32
2023-02-08T16:08:35.780Z,5.60
2023-02-08T16:11:33.725Z,6.50
2023-02-08T16:14:02.286Z,11.55
2023-02-08T16:16:44.350Z,6.57
2023-02-08T16:19:28.909Z,6.68
2023-02-08T16:22:17.618Z,5.95
2023-02-08T16:24:46.912Z,8.90
2023-02-08T16:27:29.522Z,9.32
2023-02-08T16:29:56.678Z,27.17
2023-02-08T16:32:31.503Z,17.15
2023-02-08T16:35:00.066Z,10.40
2023-02-08T16:37:32.603Z,6.93
2023-02-08T16:40:24.908Z,10.05
2023-02-08T16:42:51.707Z,9.73
2023-02-08T16:45:22.584Z,10.13
2023-02-08T16:47:53.368Z,12.32
2023-02-08T16:50:26.304Z,10.75
2023-02-08T16:53:01.179Z,11.30
2023-02-08T16:55:31.356Z,8.82
2023-02-08T16:57:59.266Z,13.27
2023-02-08T17:00:33.373Z,14.88
2023-02-08T17:03:01.059Z,13.70
2023-02-08T17:05:31.095Z,63.92
2023-02-08T17:07:58.518Z,11.05
2023-02-08T17:10:31.243Z,30.35
2023-02-08T17:13:17.536Z,18.75
2023-02-08T17:15:47.738Z,10.20
2023-02-08T17:18:14.797Z,9.98
2023-02-08T17:20:42.614Z,8.30
2023-02-08T17:23:10.527Z,9.93
2023-02-08T17:25:37.794Z,7.78
2023-02-08T17:28:07.852Z,11.18
2023-02-08T17:30:38.262Z,7.60
2023-02-08T17:33:07.473Z,10.80
2023-02-08T17:35:36.993Z,14.55
2023-02-08T17:38:04.933Z,28.75
2023-02-08T17:40:34.801Z,25.23
2023-02-08T17:43:03.972Z,13.80
2023-02-08T17:45:30.893Z,11.10
2023-02-08T17:48:00.454Z,17.73
2023-02-08T17:50:30.405Z,15.13
2023-02-08T17:52:57.798Z,14.07
2023-02-08T17:55:25.141Z,16.13
2023-02-08T17:57:53.972Z,14.95
2023-02-08T18:00:23.820Z,14.35
2023-02-08T18:02:54.800Z,17.25
2023-02-08T18:05:25.095Z,13.82
2023-02-08T18:07:53.418Z,14.52
2023-02-08T18:10:20.937Z,11.25
2023-02-08T18:12:47.738Z,13.55
2023-02-08T18:15:20.349Z,14.77
2023-02-08T18:17:48.719Z,16.00
2023-02-08T18:20:16.366Z,12.70
2023-02-08T18:22:44.343Z,13.40
2023-02-08T18:25:12.541Z,20.27
2023-02-08T18:27:42.487Z,18.30
2023-02-08T18:30:13.241Z,14.02
2023-02-08T18:32:40.402Z,16.77
2023-02-08T18:35:12.067Z,20.55
2023-02-08T18:37:42.130Z,19.08
2023-02-08T18:40:11.274Z,12.30
2023-02-08T18:42:38.116Z,13.75
2023-02-08T18:45:10.625Z,10.48
2023-02-08T18:47:39.541Z,15.07
2023-02-08T18:50:07.407Z,11.35
2023-02-08T18:52:36.509Z,12.00
2023-02-08T18:55:03.957Z,10.52
2023-02-08T18:57:34.378Z,13.13
2023-02-08T19:00:07.409Z,17.23
2023-02-08T19:02:34.577Z,16.25
2023-02-08T19:05:01.495Z,16.63
2023-02-08T19:07:31.957Z,13.45
2023-02-08T19:09:58.876Z,13.30
2023-02-08T19:12:26.614Z,13.88
2023-02-08T19:14:53.431Z,12.90
2023-02-08T19:17:20.351Z,15.48
2023-02-08T19:19:47.405Z,15.20
2023-02-08T19:22:14.476Z,10.32
2023-02-08T19:24:41.319Z,13.73
2023-02-08T19:27:09.826Z,11.77
2023-02-08T19:29:39.383Z,21.98
2023-02-08T19:32:08.529Z,19.27
2023-02-08T19:34:35.853Z,18.73
2023-02-08T19:37:03.002Z,18.55
2023-02-08T19:39:33.320Z,30.55
2023-02-08T19:42:00.182Z,28.88
2023-02-08T19:44:30.280Z,35.88
2023-02-08T19:46:59.414Z,20.42
2023-02-08T19:49:28.230Z,24.80
2023-02-08T19:51:56.959Z,48.13
2023-02-08T19:54:23.849Z,16.38
2023-02-08T19:56:52.212Z,10.80
2023-02-08T19:59:34.871Z,9.68
2023-02-08T20:02:08.158Z,11.20
2023-02-08T20:04:36.312Z,9.52
2023-02-08T20:07:05.367Z,13.38
2023-02-08T20:09:34.010Z,8.98
2023-02-08T20:12:00.832Z,8.75
2023-02-08T20:14:41.389Z,7.07
2023-02-08T20:17:08.302Z,10.95
2023-02-08T20:19:40.204Z,12.55
2023-02-08T20:22:09.323Z,8.23
2023-02-08T20:24:36.108Z,11.05
2023-02-08T20:27:03.028Z,12.90
2023-02-08T20:29:30.783Z,9.88
2023-02-08T20:31:58.111Z,12.38
2023-02-08T20:34:25.299Z,9.57
2023-02-08T20:37:06.478Z,9.10
2023-02-08T20:39:35.388Z,15.40
2023-02-08T20:42:02.270Z,12.10
2023-02-08T20:44:29.308Z,8.93
2023-02-08T20:46:58.639Z,10.85
2023-02-08T20:49:26.884Z,11.35
2023-02-08T20:51:54.591Z,11.05
2023-02-08T20:54:24.469Z,10.48
2023-02-08T20:56:52.670Z,17.77
2023-02-08T20:59:19.717Z,14.23
2023-02-08T21:01:46.790Z,14.90
2023-02-08T21:04:13.919Z,20.02
2023-02-08T21:06:44.497Z,19.20
2023-02-08T21:09:18.382Z,15.95
2023-02-08T21:11:45.797Z,20.55
2023-02-08T21:14:18.747Z,18.92
2023-02-08T21:16:48.689Z,18.58
2023-02-08T21:19:16.148Z,16.42
2023-02-08T21:21:43.234Z,13.45
2023-02-08T21:24:11.271Z,12.55
2023-02-08T21:26:38.262Z,16.13
2023-02-08T21:29:07.790Z,23.75
2023-02-08T21:31:36.713Z,19.73
2023-02-08T21:34:04.844Z,24.80
2023-02-08T21:36:31.970Z,31.33
2023-02-08T21:39:00.112Z,24.80
2023-02-08T21:41:29.580Z,18.50
2023-02-08T21:43:58.465Z,21.80
2023-02-08T21:46:26.264Z,19.17
2023-02-08T21:49:11.416Z,18.40
2023-02-08T21:51:56.936Z,15.20
2023-02-08T21:54:41.533Z,15.27
2023-02-08T21:57:11.525Z,14.57
2023-02-08T21:59:38.764Z,22.08
2023-02-08T22:02:16.659Z,17.58
2023-02-08T22:04:46.780Z,12.73
2023-02-08T22:07:14.019Z,13.27
2023-02-08T22:09:42.052Z,13.45
2023-02-08T22:12:14.756Z,15.25
2023-02-08T22:14:41.810Z,9.70
2023-02-08T22:17:08.944Z,15.02
2023-02-08T22:19:38.456Z,14.23
2023-02-08T22:22:05.322Z,21.48
2023-02-08T22:24:33.718Z,12.50
2023-02-08T22:27:01.339Z,19.98
2023-02-08T22:29:28.440Z,13.07
2023-02-08T22:31:55.519Z,12.30
2023-02-08T22:34:22.530Z,13.23
2023-02-08T22:36:49.380Z,17.98
2023-02-08T22:39:16.240Z,11.60
2023-02-08T22:41:43.067Z,16.30
2023-02-08T22:44:09.831Z,10.20
2023-02-08T22:46:36.750Z,9.13
2023-02-08T22:49:03.541Z,11.95
2023-02-08T22:51:30.722Z,11.07
2023-02-08T22:53:57.587Z,11.18
2023-02-08T22:56:24.407Z,14.75
2023-02-08T22:58:51.198Z,12.02
2023-02-08T23:01:18.239Z,13.43
2023-02-08T23:03:45.326Z,23.65
2023-02-08T23:06:16.220Z,13.68
2023-02-08T23:08:43.452Z,11.80
2023-02-08T23:11:13.450Z,12.50
2023-02-08T23:13:40.478Z,13.38
2023-02-08T23:16:07.509Z,10.73
2023-02-08T23:18:35.745Z,13.50
2023-02-08T23:21:11.532Z,10.27
2023-02-08T23:23:38.999Z,14.20
2023-02-08T23:26:07.898Z,16.23
2023-02-08T23:28:34.842Z,14.55
2023-02-08T23:31:05.776Z,13.75
2023-02-08T23:33:33.429Z,16.17
2023-02-08T23:36:00.189Z,17.25
2023-02-08T23:38:28.032Z,18.98
2023-02-08T23:40:54.830Z,17.75
2023-02-08T23:43:21.571Z,15.00
2023-02-08T23:45:48.356Z,19.23
2023-02-08T23:48:15.117Z,17.95
2023-02-08T23:50:41.945Z,15.85
2023-02-08T23:53:08.739Z,16.75
2023-02-08T23:55:35.529Z,22.05
2023-02-08T23:58:02.361Z,15.65
